Time;durP1;ratioP1;P1;durP2;ratioP2;P2;SDS_P1;SDS_P2;PMS_P1;PMS_P2;Temp;Humidity;BMP_temperature;BMP_pressure;BME280_temperature;BME280_humidity;BME280_pressure;Samples;Min_cycle;Max_cycle;Signal;HPM_P1;HPM_P2
2023/10/17 00:02:08;;;;;;;6.22;3.63;;;28.00;99.90;;;;;;5034842;28;20083;-50
2023/10/17 00:04:35;;;;;;;6.15;4.00;;;28.00;99.90;;;;;;5052147;28;20067;-50
2023/10/17 00:07:02;;;;;;;6.93;3.65;;;28.00;99.90;;;;;;5052038;28;20039;-50
2023/10/17 00:09:29;;;;;;;6.30;3.80;;;28.00;99.90;;;;;;5034703;28;20032;-50
2023/10/17 00:12:09;;;;;;;7.25;3.97;;;28.00;99.90;;;;;;5052243;28;20082;-50
2023/10/17 00:14:35;;;;;;;7.22;3.97;;;28.00;99.90;;;;;;5051932;28;20023;-50
2023/10/17 00:17:04;;;;;;;6.13;3.42;;;27.90;99.90;;;;;;5051993;28;20025;-50
2023/10/17 00:19:33;;;;;;;6.18;3.97;;;28.00;99.90;;;;;;5052023;28;20013;-50
2023/10/17 00:22:04;;;;;;;6.60;3.83;;;28.00;99.90;;;;;;5052000;28;20085;-50
2023/10/17 00:24:30;;;;;;;5.45;3.45;;;27.90;99.90;;;;;;5051830;28;20103;-50
2023/10/17 00:26:56;;;;;;;7.95;4.00;;;27.90;99.90;;;;;;5051893;28;20108;-50
2023/10/17 00:29:22;;;;;;;7.57;3.10;;;27.90;99.90;;;;;;5051986;28;20024;-50
2023/10/17 00:31:48;;;;;;;5.38;3.67;;;27.90;99.90;;;;;;5052103;28;20032;-50
2023/10/17 00:34:15;;;;;;;7.43;4.32;;;27.90;99.90;;;;;;5051877;28;20025;-50
2023/10/17 00:36:51;;;;;;;5.38;3.33;;;27.90;99.90;;;;;;5051904;28;20021;-50
2023/10/17 00:39:30;;;;;;;7.97;4.50;;;27.90;99.90;;;;;;5056006;28;20028;-50
2023/10/17 00:44:32;;;;;;;6.22;3.45;;;27.80;99.90;;;;;;5055837;28;20023;-50
2023/10/17 00:46:59;;;;;;;7.50;4.00;;;27.80;99.90;;;;;;5055585;28;20069;-50
2023/10/17 00:49:26;;;;;;;5.28;3.30;;;27.80;99.90;;;;;;5055645;28;20032;-50
2023/10/17 00:51:59;;;;;;;5.40;3.97;;;27.80;99.90;;;;;;5055535;28;20036;-50
2023/10/17 00:54:29;;;;;;;6.68;3.67;;;27.80;99.90;;;;;;5055621;28;20028;-50
2023/10/17 00:56:55;;;;;;;8.00;4.10;;;27.80;99.90;;;;;;5055602;28;20496;-50
2023/10/17 00:59:29;;;;;;;8.85;4.07;;;27.80;99.90;;;;;;5055567;28;20031;-50
2023/10/17 01:02:08;;;;;;;5.43;3.53;;;27.80;99.90;;;;;;5055686;28;20124;-50
2023/10/17 01:04:40;;;;;;;5.95;4.00;;;27.80;99.90;;;;;;5055319;28;20017;-50
2023/10/17 01:07:06;;;;;;;6.15;3.72;;;27.70;99.90;;;;;;5055122;28;20033;-50
2023/10/17 01:09:35;;;;;;;5.20;3.47;;;27.70;99.90;;;;;;5055251;28;20523;-50
2023/10/17 01:12:08;;;;;;;6.18;3.85;;;27.80;99.90;;;;;;5055149;28;20032;-50
2023/10/17 01:14:35;;;;;;;9.02;4.15;;;27.70;99.90;;;;;;5055127;28;20029;-50
2023/10/17 01:17:05;;;;;;;5.28;3.30;;;27.70;99.90;;;;;;5055179;28;20021;-50
2023/10/17 01:19:33;;;;;;;5.40;3.75;;;27.70;99.90;;;;;;5055033;28;20090;-50
2023/10/17 01:21:59;;;;;;;6.05;3.88;;;27.70;99.90;;;;;;5055050;28;20021;-50
2023/10/17 01:24:26;;;;;;;6.23;3.70;;;27.70;99.90;;;;;;5037182;28;20082;-50
2023/10/17 01:26:52;;;;;;;4.68;3.35;;;27.70;99.90;;;;;;5054999;28;20032;-50
2023/10/17 01:29:18;;;;;;;8.02;3.53;;;27.70;99.90;;;;;;5055252;28;20017;-50
2023/10/17 01:31:44;;;;;;;5.00;3.30;;;27.70;99.90;;;;;;5054828;28;20070;-51
2023/10/17 01:34:11;;;;;;;6.57;3.83;;;27.70;99.90;;;;;;5054844;28;20497;-50
2023/10/17 01:36:42;;;;;;;6.13;3.22;;;27.70;99.90;;;;;;5054929;28;20052;-50
2023/10/17 01:39:10;;;;;;;5.40;3.45;;;27.60;99.90;;;;;;5054825;28;20021;-50
2023/10/17 01:41:46;;;;;;;5.88;3.90;;;27.70;99.90;;;;;;5037346;28;20020;-50
2023/10/17 01:44:12;;;;;;;9.05;3.75;;;27.60;99.90;;;;;;5054663;28;20013;-50
2023/10/17 01:46:38;;;;;;;6.20;4.20;;;27.70;99.90;;;;;;5054473;28;20040;-50
2023/10/17 01:49:10;;;;;;;6.57;3.83;;;27.70;99.90;;;;;;5053692;28;20029;-50
2023/10/17 01:51:36;;;;;;;6.00;3.35;;;27.70;99.90;;;;;;5054390;28;20482;-50
2023/10/17 01:54:08;;;;;;;4.80;3.40;;;27.70;99.90;;;;;;5054430;28;20109;-51
2023/10/17 01:56:39;;;;;;;4.45;3.38;;;27.60;99.90;;;;;;5054368;28;20032;-50
2023/10/17 01:59:17;;;;;;;7.07;3.75;;;27.60;99.90;;;;;;5036307;28;20031;-50
2023/10/17 02:01:43;;;;;;;4.82;3.60;;;27.60;99.90;;;;;;5054813;28;20433;-50
2023/10/17 02:04:13;;;;;;;6.53;3.83;;;27.60;99.90;;;;;;5054185;28;20018;-51
2023/10/17 02:06:39;;;;;;;5.80;3.78;;;27.60;99.90;;;;;;5054167;28;20033;-50
2023/10/17 02:11:56;;;;;;;6.10;3.53;;;27.60;99.90;;;;;;5054156;28;20091;-50
2023/10/17 02:14:22;;;;;;;6.55;3.63;;;27.60;99.90;;;;;;5054302;28;20029;-50
2023/10/17 02:16:51;;;;;;;5.30;3.57;;;27.60;99.90;;;;;;5054061;28;20025;-50
2023/10/17 02:19:20;;;;;;;6.85;3.80;;;27.60;99.90;;;;;;5053989;28;20260;-50
2023/10/17 02:21:50;;;;;;;5.68;3.63;;;27.60;99.90;;;;;;5053885;28;20039;-50
2023/10/17 02:24:19;;;;;;;7.10;4.13;;;27.50;99.90;;;;;;5053803;28;20504;-51
2023/10/17 02:27:00;;;;;;;6.63;4.07;;;27.60;99.90;;;;;;5053689;28;20115;-51
2023/10/17 02:29:29;;;;;;;8.70;3.50;;;27.60;99.90;;;;;;5053900;28;20021;-50
2023/10/17 02:31:56;;;;;;;6.07;4.15;;;27.60;99.90;;;;;;5053805;28;20465;-51
2023/10/17 02:34:22;;;;;;;6.70;3.60;;;27.50;99.90;;;;;;5053989;28;20048;-51
2023/10/17 02:36:52;;;;;;;6.20;3.47;;;27.60;99.90;;;;;;5053549;28;20032;-51
2023/10/17 02:39:20;;;;;;;5.07;3.28;;;27.50;99.90;;;;;;5053647;28;20021;-51
2023/10/17 02:41:47;;;;;;;6.68;3.80;;;27.50;99.90;;;;;;5053598;28;20021;-50
2023/10/17 02:44:19;;;;;;;5.27;3.77;;;27.50;99.90;;;;;;5053483;28;20021;-51
2023/10/17 02:46:45;;;;;;;5.80;3.40;;;27.50;99.90;;;;;;5035532;28;20344;-50
2023/10/17 02:49:13;;;;;;;4.82;3.72;;;27.50;99.90;;;;;;5053344;28;20021;-51
2023/10/17 02:51:43;;;;;;;5.40;3.30;;;27.50;99.90;;;;;;5053487;28;20017;-51
2023/10/17 02:54:12;;;;;;;5.45;4.03;;;27.50;99.90;;;;;;5053273;28;20021;-51
2023/10/17 02:56:39;;;;;;;4.68;3.38;;;27.40;99.90;;;;;;5053236;28;20029;-50
2023/10/17 02:59:09;;;;;;;6.15;4.05;;;27.40;99.90;;;;;;5035634;28;20021;-51
2023/10/17 03:01:37;;;;;;;5.72;3.97;;;27.40;99.90;;;;;;5035566;28;20055;-51
2023/10/17 03:04:08;;;;;;;5.20;3.40;;;27.50;99.90;;;;;;5053250;28;20025;-51
2023/10/17 03:06:37;;;;;;;5.60;3.72;;;27.50;99.90;;;;;;5035111;28;20037;-51
2023/10/17 03:09:15;;;;;;;6.07;3.65;;;27.40;99.90;;;;;;5053094;28;20455;-50
2023/10/17 03:12:07;;;;;;;7.20;3.42;;;27.40;99.90;;;;;;5053035;28;20527;-51
2023/10/17 03:17:11;;;;;;;5.22;3.72;;;27.40;99.90;;;;;;5053053;28;20032;-51
2023/10/17 03:19:38;;;;;;;5.47;3.45;;;27.40;99.90;;;;;;5052911;28;20029;-50
2023/10/17 03:22:19;;;;;;;9.07;3.67;;;27.40;99.90;;;;;;5052857;28;20021;-51
2023/10/17 03:24:51;;;;;;;8.48;4.00;;;27.40;99.90;;;;;;5052714;28;20118;-51
2023/10/17 03:30:14;;;;;;;4.30;2.88;;;27.40;99.90;;;;;;5035079;28;20120;-51
2023/10/17 03:35:25;;;;;;;5.13;3.20;;;27.40;99.90;;;;;;5053047;28;20458;-51
2023/10/17 03:37:54;;;;;;;6.93;3.63;;;27.40;99.90;;;;;;5052528;28;20025;-51
2023/10/17 03:42:55;;;;;;;5.22;2.90;;;27.30;99.90;;;;;;5036060;28;20035;-50
2023/10/17 03:47:53;;;;;;;7.40;3.72;;;27.30;99.90;;;;;;5052601;28;20029;-50
2023/10/17 03:50:34;;;;;;;7.35;2.97;;;27.30;99.90;;;;;;5052243;28;20024;-51
2023/10/17 03:53:06;;;;;;;5.57;2.90;;;27.30;99.90;;;;;;5052569;28;20017;-50
2023/10/17 03:55:35;;;;;;;5.82;3.25;;;27.30;99.90;;;;;;5052238;28;20025;-51
2023/10/17 03:58:08;;;;;;;5.72;3.30;;;27.30;99.90;;;;;;5052426;28;20025;-51
2023/10/17 04:00:40;;;;;;;5.03;2.97;;;27.30;99.90;;;;;;5052681;28;20040;-51
2023/10/17 04:03:10;;;;;;;8.27;3.38;;;27.20;99.90;;;;;;5052038;28;20492;-51
2023/10/17 04:05:38;;;;;;;6.53;3.05;;;27.30;99.90;;;;;;5052074;28;20061;-50
2023/10/17 04:08:05;;;;;;;5.68;3.53;;;27.20;99.90;;;;;;5052316;28;20587;-50
2023/10/17 04:10:47;;;;;;;6.87;3.43;;;27.30;99.90;;;;;;5052287;28;20067;-50
2023/10/17 04:13:18;;;;;;;5.10;3.20;;;27.30;99.90;;;;;;5057252;28;20353;-50
2023/10/17 04:15:44;;;;;;;6.13;3.38;;;27.20;99.90;;;;;;5040711;28;20032;-50
2023/10/17 04:18:11;;;;;;;5.53;2.83;;;27.20;99.90;;;;;;5040856;28;20024;-50
2023/10/17 04:20:38;;;;;;;6.13;3.10;;;27.30;99.90;;;;;;5058759;28;20377;-50
2023/10/17 04:23:05;;;;;;;5.93;2.97;;;27.20;99.90;;;;;;5058561;28;20029;-50
2023/10/17 04:25:34;;;;;;;4.65;3.40;;;27.20;99.90;;;;;;5058881;28;20029;-50
2023/10/17 04:28:01;;;;;;;5.30;3.47;;;27.20;99.90;;;;;;5058737;28;20040;-51
2023/10/17 04:30:35;;;;;;;3.78;2.80;;;27.20;99.90;;;;;;5058703;28;20104;-51
2023/10/17 04:33:14;;;;;;;4.75;2.90;;;27.20;99.90;;;;;;5058866;28;20025;-51
2023/10/17 04:35:46;;;;;;;6.85;3.90;;;27.20;99.90;;;;;;5058621;28;20020;-50
2023/10/17 04:38:36;;;;;;;5.30;3.08;;;27.20;99.90;;;;;;5058568;28;20051;-51
2023/10/17 04:43:56;;;;;;;5.60;3.58;;;27.20;99.90;;;;;;5058770;28;20428;-51
2023/10/17 04:46:41;;;;;;;8.65;3.15;;;27.20;99.90;;;;;;5058439;28;20115;-51
2023/10/17 04:49:06;;;;;;;7.45;3.65;;;27.20;99.90;;;;;;5058336;28;20553;-50
2023/10/17 04:51:42;;;;;;;5.60;3.13;;;27.20;99.90;;;;;;5058625;28;20112;-51
2023/10/17 04:54:23;;;;;;;6.28;3.50;;;27.20;99.90;;;;;;5058541;28;20381;-51
2023/10/17 04:57:05;;;;;;;6.40;3.63;;;27.20;99.90;;;;;;5058435;28;20021;-50
2023/10/17 05:08:11;;;;;;;5.65;3.35;;;27.20;99.90;;;;;;5058277;28;20068;-51
2023/10/17 06:18:57;;;;;;;6.43;2.83;;;27.00;99.90;;;;;;5054164;28;20115;-50
2023/10/17 06:21:36;;;;;;;6.93;3.00;;;27.00;99.90;;;;;;5053882;28;20039;-51
2023/10/17 06:24:06;;;;;;;5.00;2.45;;;27.00;99.90;;;;;;5053866;28;20493;-51
2023/10/17 06:34:20;;;;;;;4.03;2.67;;;27.00;99.90;;;;;;5053602;28;20496;-51
2023/10/17 06:36:50;;;;;;;6.35;2.78;;;26.90;99.90;;;;;;5053187;28;20056;-51
2023/10/17 06:39:17;;;;;;;4.28;2.50;;;26.90;99.90;;;;;;5053571;28;20036;-50
2023/10/17 06:41:47;;;;;;;4.93;2.85;;;26.90;99.90;;;;;;5053593;28;20048;-50
2023/10/17 06:44:31;;;;;;;6.13;2.90;;;27.00;99.90;;;;;;5035347;28;20381;-50
2023/10/17 06:47:07;;;;;;;5.63;2.90;;;27.00;99.90;;;;;;5035264;28;20420;-51
2023/10/17 06:54:41;;;;;;;5.38;3.03;;;27.00;99.90;;;;;;5053255;28;20056;-51
2023/10/17 06:57:19;;;;;;;6.00;3.38;;;27.00;99.90;;;;;;5053297;28;20029;-51
2023/10/17 06:59:51;;;;;;;4.53;2.63;;;26.90;99.90;;;;;;5053332;28;20036;-51
2023/10/17 07:02:34;;;;;;;6.47;2.90;;;26.90;99.90;;;;;;5052896;28;20040;-51
2023/10/17 07:05:01;;;;;;;4.55;2.53;;;26.90;99.90;;;;;;5053121;28;20025;-51
2023/10/17 07:07:40;;;;;;;4.70;2.58;;;26.90;99.90;;;;;;5052857;28;20055;-51
2023/10/17 07:10:16;;;;;;;7.38;2.58;;;26.90;99.90;;;;;;5053233;28;20029;-51
2023/10/17 07:12:47;;;;;;;9.23;3.00;;;26.90;99.90;;;;;;5052816;28;20104;-51
2023/10/17 07:15:25;;;;;;;4.78;2.60;;;26.90;99.90;;;;;;5052808;28;20032;-50
2023/10/17 07:18:43;;;;;;;4.70;2.65;;;26.90;99.90;;;;;;5052772;28;20029;-51
2023/10/17 07:23:41;;;;;;;5.43;2.72;;;26.90;99.90;;;;;;5052896;28;20108;-51
2023/10/17 07:26:12;;;;;;;5.65;3.05;;;26.90;99.90;;;;;;5052848;28;20036;-51
2023/10/17 07:28:43;;;;;;;5.20;3.38;;;26.90;99.90;;;;;;5052729;28;20028;-51
2023/10/17 07:31:13;;;;;;;6.63;2.85;;;26.90;99.90;;;;;;5034863;28;20025;-51
2023/10/17 07:33:43;;;;;;;8.00;3.40;;;26.90;99.90;;;;;;5035452;28;20017;-51
2023/10/17 07:36:15;;;;;;;6.72;3.25;;;26.90;99.90;;;;;;5052814;28;20027;-51
2023/10/17 07:38:43;;;;;;;8.65;3.15;;;26.90;99.90;;;;;;5052627;28;20078;-50
2023/10/17 07:41:15;;;;;;;7.97;3.10;;;26.90;99.90;;;;;;5052601;28;20025;-51
2023/10/17 07:43:44;;;;;;;6.72;3.15;;;26.90;99.90;;;;;;5052553;28;20035;-51
2023/10/17 07:46:26;;;;;;;10.05;4.00;;;26.90;99.90;;;;;;5035288;28;20362;-50
2023/10/17 07:48:52;;;;;;;5.00;2.90;;;26.90;99.90;;;;;;5052107;28;20035;-51
2023/10/17 07:51:18;;;;;;;10.48;3.80;;;27.00;99.90;;;;;;5034396;28;20060;-51
2023/10/17 07:53:47;;;;;;;15.57;3.78;;;26.90;99.90;;;;;;5052206;28;20060;-51
2023/10/17 07:56:26;;;;;;;10.50;3.15;;;27.00;99.90;;;;;;5052178;28;20021;-50
2023/10/17 07:59:15;;;;;;;6.38;2.63;;;27.00;99.90;;;;;;5051957;28;20433;-51
2023/10/17 08:01:49;;;;;;;6.50;3.22;;;27.00;99.90;;;;;;5052113;28;20053;-51
2023/10/17 08:06:42;;;;;;;10.52;2.92;;;27.00;99.90;;;;;;5052386;28;20127;-50
2023/10/17 08:09:35;;;;;;;5.00;2.85;;;26.90;99.90;;;;;;5052070;28;20052;-51
2023/10/17 08:11:59;;;;;;;6.40;2.80;;;27.00;99.90;;;;;;5051116;28;20037;-51
2023/10/17 08:14:45;;;;;;;6.10;2.40;;;27.00;99.90;;;;;;5052010;28;20056;-51
2023/10/17 08:17:11;;;;;;;8.10;3.13;;;27.00;99.90;;;;;;5052246;28;20033;-51
2023/10/17 08:22:25;;;;;;;4.65;2.50;;;27.00;99.90;;;;;;5037118;28;20056;-51
2023/10/17 08:24:57;;;;;;;5.55;2.75;;;27.00;99.90;;;;;;5051915;28;20032;-51
2023/10/17 08:29:57;;;;;;;6.65;3.15;;;27.00;99.90;;;;;;5051915;28;20015;-51
2023/10/17 08:34:59;;;;;;;6.82;3.35;;;27.10;99.90;;;;;;5051746;28;20029;-51
2023/10/17 08:37:30;;;;;;;4.13;2.75;;;27.00;99.90;;;;;;5051696;28;20044;-51
2023/10/17 08:39:57;;;;;;;4.78;2.40;;;27.00;99.90;;;;;;5051651;28;20029;-51
2023/10/17 08:42:49;;;;;;;6.53;3.15;;;27.10;99.90;;;;;;5051752;28;20104;-51
2023/10/17 08:45:15;;;;;;;4.55;2.20;;;27.10;99.90;;;;;;5051107;28;20017;-51
2023/10/17 08:47:42;;;;;;;4.65;2.38;;;27.10;99.90;;;;;;5051825;28;20210;-51
2023/10/17 08:50:09;;;;;;;4.63;2.90;;;27.10;99.90;;;;;;5034082;28;20060;-50
2023/10/17 08:52:37;;;;;;;7.10;3.25;;;27.10;99.90;;;;;;5051545;28;20029;-50
2023/10/17 08:55:04;;;;;;;6.22;2.63;;;27.10;99.90;;;;;;5033701;28;20124;-51
2023/10/17 08:57:31;;;;;;;5.13;2.73;;;27.20;99.90;;;;;;5051358;28;20048;-51
2023/10/17 09:02:39;;;;;;;5.15;2.75;;;27.10;99.90;;;;;;5054979;28;20131;-51
2023/10/17 09:05:25;;;;;;;3.88;2.45;;;27.20;99.90;;;;;;5055180;28;20021;-51
2023/10/17 09:07:58;;;;;;;5.75;2.85;;;27.20;99.90;;;;;;5055057;28;20063;-52
2023/10/17 09:10:39;;;;;;;4.15;2.25;;;27.20;99.90;;;;;;5054919;28;20021;-50
2023/10/17 09:15:56;;;;;;;6.13;3.00;;;27.20;99.90;;;;;;5055281;28;20020;-51
2023/10/17 09:18:27;;;;;;;6.05;2.90;;;27.20;99.90;;;;;;5055096;28;20025;-51
2023/10/17 09:20:55;;;;;;;5.15;2.88;;;27.30;99.90;;;;;;5054848;28;20047;-50
2023/10/17 09:23:22;;;;;;;;;;;27.30;99.90;;;;;;5055216;28;20098;-51
2023/10/17 09:26:19;;;;;;;6.70;3.30;;;27.30;99.90;;;;;;5054845;28;19943;-51
2023/10/17 09:28:47;;;;;;;5.22;2.78;;;27.40;99.90;;;;;;5054961;28;20055;-51
2023/10/17 09:31:15;;;;;;;6.88;2.80;;;27.40;99.90;;;;;;5054874;28;20041;-51
2023/10/17 09:33:45;;;;;;;5.93;2.92;;;27.40;99.90;;;;;;5054731;28;20025;-51
2023/10/17 09:36:18;;;;;;;4.60;2.65;;;27.40;99.90;;;;;;5054730;28;20060;-51
2023/10/17 09:38:46;;;;;;;5.90;2.80;;;27.40;99.90;;;;;;5036846;28;20543;-51
2023/10/17 09:41:17;;;;;;;;;;;27.40;99.90;;;;;;5055161;28;20446;-51
2023/10/17 09:43:51;;;;;;;6.60;2.63;;;27.50;99.90;;;;;;5054585;28;19936;-51
2023/10/17 09:46:23;;;;;;;4.65;2.58;;;27.50;99.90;;;;;;5054933;28;20025;-51
2023/10/17 09:48:52;;;;;;;5.40;2.70;;;27.50;99.90;;;;;;5054481;28;20074;-51
2023/10/17 09:51:27;;;;;;;5.20;2.63;;;27.50;99.90;;;;;;5054657;28;20017;-51
2023/10/17 09:53:54;;;;;;;4.63;2.80;;;27.60;99.90;;;;;;5054483;28;20052;-51
2023/10/17 09:56:22;;;;;;;;;;;27.60;99.90;;;;;;5036919;28;20052;-51
2023/10/17 09:58:52;;;;;;;6.28;2.45;;;27.70;99.90;;;;;;5054520;28;19905;-51
2023/10/17 10:01:24;;;;;;;8.10;2.75;;;27.70;99.90;;;;;;5054192;28;20497;-51
2023/10/17 10:03:58;;;;;;;5.80;2.58;;;27.70;99.90;;;;;;5036620;28;20033;-51
2023/10/17 10:06:32;;;;;;;4.60;2.80;;;27.80;99.90;;;;;;5054144;28;20499;-51
2023/10/17 10:09:05;;;;;;;3.42;2.50;;;27.80;99.90;;;;;;5054180;28;20108;-51
2023/10/17 10:12:07;;;;;;;5.43;2.95;;;27.90;99.90;;;;;;5053439;28;20547;-51
2023/10/17 10:14:42;;;;;;;5.68;2.35;;;28.00;99.90;;;;;;4992540;28;20524;-51
2023/10/17 10:17:09;;;;;;;4.60;2.53;;;28.00;99.90;;;;;;5045465;28;20037;-51
2023/10/17 10:19:41;;;;;;;;;;;28.00;99.90;;;;;;5054476;28;20039;-51
2023/10/17 10:22:12;;;;;;;6.20;2.85;;;28.10;99.90;;;;;;5053926;28;20333;-51
2023/10/17 10:24:39;;;;;;;8.45;2.53;;;28.10;99.90;;;;;;5053805;28;20033;-51
2023/10/17 10:27:14;;;;;;;5.38;2.13;;;28.20;99.90;;;;;;5053699;28;20037;-52
2023/10/17 10:29:44;;;;;;;5.13;2.72;;;28.20;99.90;;;;;;5053698;28;20021;-51
2023/10/17 10:32:25;;;;;;;4.05;2.22;;;28.20;99.90;;;;;;5053755;28;20036;-51
2023/10/17 10:34:52;;;;;;;5.65;2.33;;;28.30;99.90;;;;;;5053960;28;20037;-50
2023/10/17 10:37:21;;;;;;;4.88;2.15;;;28.30;99.90;;;;;;5053866;28;20025;-51
2023/10/17 10:40:16;;;;;;;7.00;3.20;;;28.40;99.90;;;;;;5053603;28;20071;-51
2023/10/17 10:42:48;;;;;;;6.35;2.70;;;28.40;99.90;;;;;;5053596;28;20021;-51
2023/10/17 10:45:40;;;;;;;6.05;2.85;;;28.50;99.90;;;;;;5053462;28;20503;-51
2023/10/17 10:48:17;;;;;;;4.90;2.75;;;28.50;99.90;;;;;;5053311;28;20040;-51
2023/10/17 10:50:48;;;;;;;4.18;2.35;;;28.50;99.90;;;;;;5053270;28;20484;-51
2023/10/17 10:53:24;;;;;;;4.93;2.30;;;28.60;99.90;;;;;;5053424;28;20389;-51
2023/10/17 10:56:09;;;;;;;4.18;2.42;;;28.60;99.90;;;;;;5053488;28;20036;-51
2023/10/17 10:58:43;;;;;;;4.50;2.92;;;28.60;99.90;;;;;;5053218;28;20017;-51
2023/10/17 11:01:09;;;;;;;6.82;3.00;;;28.60;99.90;;;;;;5052958;28;20473;-51
2023/10/17 11:03:48;;;;;;;7.03;2.88;;;28.60;99.90;;;;;;5053142;28;20100;-51
2023/10/17 11:06:15;;;;;;;5.70;2.83;;;28.70;99.90;;;;;;5034971;28;20035;-51
2023/10/17 11:08:43;;;;;;;4.13;2.33;;;28.70;99.90;;;;;;5053002;28;20029;-51
2023/10/17 11:11:14;;;;;;;3.92;2.40;;;28.70;99.90;;;;;;5053020;28;20465;-52
2023/10/17 11:13:50;;;;;;;6.25;2.80;;;28.70;99.90;;;;;;5053045;28;20117;-51
2023/10/17 11:16:21;;;;;;;3.22;2.22;;;28.80;99.90;;;;;;5052835;28;20096;-51
2023/10/17 11:18:48;;;;;;;6.57;3.30;;;28.80;99.90;;;;;;5052939;28;20025;-51
2023/10/17 11:21:17;;;;;;;6.22;2.38;;;28.90;99.90;;;;;;5052309;28;20317;-52
2023/10/17 11:23:50;;;;;;;3.88;2.30;;;28.80;99.90;;;;;;5052342;28;20056;-50
2023/10/17 11:26:21;;;;;;;4.75;2.70;;;28.90;99.90;;;;;;5052533;28;20028;-51
2023/10/17 11:28:47;;;;;;;6.03;2.85;;;28.90;99.90;;;;;;5052807;28;20025;-51
2023/10/17 11:31:21;;;;;;;8.40;2.65;;;28.90;99.90;;;;;;5052641;28;20116;-51
2023/10/17 11:34:06;;;;;;;4.50;2.75;;;29.00;99.90;;;;;;5052563;28;20043;-50
2023/10/17 11:36:54;;;;;;;3.55;2.55;;;29.00;99.90;;;;;;5052589;28;20025;-51
2023/10/17 11:39:20;;;;;;;3.20;2.13;;;29.00;99.90;;;;;;5052688;28;20021;-51
2023/10/17 11:41:53;;;;;;;4.45;2.65;;;29.00;99.90;;;;;;5052487;28;20021;-51
2023/10/17 11:44:24;;;;;;;6.57;2.33;;;29.00;99.90;;;;;;5052409;28;20484;-51
2023/10/17 11:47:00;;;;;;;4.90;2.40;;;29.10;99.90;;;;;;5052394;28;20033;-51
2023/10/17 11:49:30;;;;;;;5.60;2.60;;;29.00;99.90;;;;;;5052353;28;20492;-51
2023/10/17 11:52:10;;;;;;;5.55;2.88;;;29.10;99.90;;;;;;5034395;28;20440;-51
2023/10/17 11:55:04;;;;;;;5.63;2.50;;;29.10;99.90;;;;;;5052302;28;20029;-51
2023/10/17 11:57:33;;;;;;;3.80;2.58;;;29.20;99.90;;;;;;5052421;28;20025;-51
2023/10/17 12:02:47;;;;;;;7.72;2.67;;;29.20;99.90;;;;;;5052027;28;20072;-51
2023/10/17 12:05:20;;;;;;;7.70;2.63;;;29.20;99.90;;;;;;5052179;28;20507;-51
2023/10/17 12:07:49;;;;;;;4.68;2.42;;;29.20;99.90;;;;;;5052018;28;20029;-51
2023/10/17 12:10:16;;;;;;;4.10;2.30;;;29.20;99.90;;;;;;5052077;28;20416;-50
2023/10/17 12:12:42;;;;;;;3.33;2.30;;;29.20;99.90;;;;;;5052051;28;20444;-51
2023/10/17 12:15:13;;;;;;;3.50;2.38;;;29.20;99.90;;;;;;5051839;28;20079;-51
2023/10/17 12:17:41;;;;;;;5.38;2.50;;;29.30;99.90;;;;;;5033928;28;20036;-51
2023/10/17 12:20:13;;;;;;;3.85;2.22;;;29.30;99.90;;;;;;5051923;28;20163;-50
2023/10/17 12:22:40;;;;;;;5.10;2.72;;;29.30;99.90;;;;;;5051929;28;20021;-50
2023/10/17 12:25:09;;;;;;;3.60;1.95;;;29.30;99.90;;;;;;5051843;28;20533;-50
2023/10/17 12:27:36;;;;;;;4.85;2.58;;;29.40;99.90;;;;;;5051885;28;20525;-50
2023/10/17 12:30:08;;;;;;;6.68;2.97;;;29.40;99.90;;;;;;5051633;28;20516;-50
2023/10/17 12:32:33;;;;;;;6.38;2.20;;;29.40;99.90;;;;;;5051806;28;20025;-51
2023/10/17 12:34:59;;;;;;;2.92;2.17;;;29.40;99.90;;;;;;5055778;28;20048;-51
2023/10/17 12:37:25;;;;;;;4.03;2.20;;;29.40;99.90;;;;;;5056025;28;20024;-51
2023/10/17 12:39:52;;;;;;;4.22;2.00;;;29.40;99.90;;;;;;5055760;28;20021;-51
2023/10/17 12:42:18;;;;;;;5.50;2.92;;;29.40;99.90;;;;;;5055746;28;20021;-51
2023/10/17 12:44:44;;;;;;;4.70;2.20;;;29.50;99.90;;;;;;5055651;28;20104;-50
2023/10/17 12:47:11;;;;;;;4.57;2.28;;;29.50;99.90;;;;;;5055648;28;20040;-51
2023/10/17 12:49:39;;;;;;;4.28;2.53;;;29.50;99.90;;;;;;5055695;28;20365;-51
2023/10/17 12:52:05;;;;;;;4.30;2.15;;;29.50;99.90;;;;;;5021294;28;20045;-51
2023/10/17 12:54:32;;;;;;;5.22;1.95;;;29.50;99.90;;;;;;5055609;28;20037;-51
2023/10/17 12:56:58;;;;;;;4.65;2.15;;;29.50;99.90;;;;;;5037785;28;20036;-50
2023/10/17 12:59:23;;;;;;;4.20;2.47;;;29.60;99.90;;;;;;5055586;28;20432;-50
2023/10/17 13:01:51;;;;;;;4.88;2.00;;;29.60;99.90;;;;;;5037068;28;20061;-50
2023/10/17 13:04:19;;;;;;;;;;;29.60;99.90;;;;;;5055720;28;20092;-50
2023/10/17 13:06:46;;;;;;;8.60;2.50;;;29.60;99.90;;;;;;5055146;28;19908;-50
2023/10/17 13:09:11;;;;;;;5.10;2.08;;;29.60;99.90;;;;;;5055390;28;20035;-50
2023/10/17 13:11:37;;;;;;;2.70;2.13;;;29.60;99.90;;;;;;5055201;28;20381;-52
2023/10/17 13:14:05;;;;;;;3.97;2.28;;;29.60;99.90;;;;;;5054831;28;20422;-50
2023/10/17 13:16:32;;;;;;;;;;;29.70;99.90;;;;;;5055522;28;20366;-50
2023/10/17 13:19:05;;;;;;;6.47;2.58;;;29.60;99.90;;;;;;5055218;28;19912;-50
2023/10/17 13:21:36;;;;;;;5.47;2.10;;;29.70;99.90;;;;;;5054931;28;20116;-50
2023/10/17 13:24:03;;;;;;;4.85;2.08;;;29.70;99.90;;;;;;5055157;28;20104;-50
2023/10/17 13:26:32;;;;;;;3.17;1.98;;;29.70;99.90;;;;;;5037532;28;20033;-50
2023/10/17 13:28:57;;;;;;;4.80;2.50;;;29.70;99.90;;;;;;5055061;28;20032;-50
2023/10/17 13:31:23;;;;;;;2.60;1.90;;;29.70;99.90;;;;;;5054830;28;20381;-51
2023/10/17 13:33:55;;;;;;;3.47;1.83;;;29.70;99.90;;;;;;5054929;28;20024;-51
2023/10/17 13:36:21;;;;;;;3.22;1.92;;;29.70;99.90;;;;;;5036858;28;20028;-51
2023/10/17 13:38:48;;;;;;;2.67;1.83;;;29.70;99.90;;;;;;5054849;28;20477;-50
2023/10/17 13:41:15;;;;;;;3.05;2.00;;;29.80;99.90;;;;;;5054625;28;20032;-51
2023/10/17 13:43:42;;;;;;;2.85;1.88;;;29.70;99.90;;;;;;5054683;28;20358;-51
2023/10/17 13:46:18;;;;;;;3.35;2.10;;;29.80;99.90;;;;;;5035770;28;20028;-50
2023/10/17 13:48:50;;;;;;;5.45;2.08;;;29.80;99.90;;;;;;5054357;28;20032;-50
2023/10/17 13:51:17;;;;;;;3.72;2.03;;;29.80;99.90;;;;;;5054427;28;20100;-51
2023/10/17 13:53:45;;;;;;;3.05;1.85;;;29.80;99.90;;;;;;5054539;28;20029;-51
2023/10/17 13:56:16;;;;;;;2.80;1.90;;;29.80;99.90;;;;;;5036787;28;20424;-51
2023/10/17 13:58:42;;;;;;;4.53;2.30;;;29.80;99.90;;;;;;5054426;28;20025;-51
2023/10/17 14:01:27;;;;;;;3.95;2.28;;;29.80;99.90;;;;;;5054301;28;20072;-51
2023/10/17 14:03:56;;;;;;;3.95;2.42;;;29.80;99.90;;;;;;5054299;28;20048;-51
2023/10/17 14:06:23;;;;;;;3.78;2.08;;;29.80;99.90;;;;;;5054084;28;20044;-51
2023/10/17 14:08:50;;;;;;;6.23;2.57;;;29.90;99.90;;;;;;5054273;28;20508;-51
2023/10/17 14:11:18;;;;;;;3.30;2.33;;;29.90;99.90;;;;;;5036714;28;20289;-51
2023/10/17 14:13:47;;;;;;;2.75;1.75;;;29.90;99.90;;;;;;5054009;28;20044;-51
2023/10/17 14:16:13;;;;;;;3.58;2.25;;;29.90;99.90;;;;;;5053809;28;20104;-50
2023/10/17 14:18:44;;;;;;;3.67;2.22;;;29.80;99.90;;;;;;5036121;28;20104;-51
2023/10/17 14:23:57;;;;;;;6.90;2.45;;;29.90;99.90;;;;;;5053755;28;20538;-51
2023/10/17 14:26:30;;;;;;;3.88;2.22;;;29.90;99.90;;;;;;5035764;28;20029;-51
2023/10/17 14:28:57;;;;;;;3.08;2.25;;;29.90;99.90;;;;;;5054284;28;20067;-51
2023/10/17 14:31:23;;;;;;;3.67;1.88;;;29.90;99.90;;;;;;5053623;28;20024;-51
2023/10/17 14:33:51;;;;;;;3.20;2.08;;;29.90;99.90;;;;;;5053694;28;20108;-51
2023/10/17 14:36:18;;;;;;;6.68;2.00;;;29.90;99.90;;;;;;5053685;28;20485;-51
2023/10/17 14:38:45;;;;;;;3.10;2.13;;;29.90;99.90;;;;;;5053450;28;20025;-51
2023/10/17 14:41:11;;;;;;;5.82;2.78;;;29.90;99.90;;;;;;5053398;28;20108;-51
2023/10/17 14:43:49;;;;;;;4.32;2.20;;;29.90;99.90;;;;;;5053216;28;20067;-51
2023/10/17 14:46:16;;;;;;;3.25;2.00;;;29.90;99.90;;;;;;5053261;28;20025;-51
2023/10/17 14:48:44;;;;;;;5.70;2.47;;;29.90;99.90;;;;;;5053355;28;20033;-51
2023/10/17 14:51:12;;;;;;;3.50;2.10;;;29.90;99.90;;;;;;5053282;28;20358;-51
2023/10/17 14:53:42;;;;;;;;;;;29.90;99.90;;;;;;5035874;28;20029;-51
2023/10/17 14:56:12;;;;;;;3.80;2.28;;;29.90;99.90;;;;;;5052848;28;19955;-52
2023/10/17 14:58:42;;;;;;;4.97;2.20;;;29.90;99.90;;;;;;5053008;28;20389;-51
2023/10/17 15:01:10;;;;;;;5.22;2.40;;;29.90;99.90;;;;;;5031807;28;20045;-51
2023/10/17 15:03:36;;;;;;;4.80;2.15;;;29.90;99.90;;;;;;5049595;28;20024;-51
2023/10/17 15:06:03;;;;;;;4.90;2.70;;;29.90;99.90;;;;;;5052817;28;20033;-50
2023/10/17 15:08:30;;;;;;;3.17;2.13;;;29.90;99.90;;;;;;5053057;28;20021;-50
2023/10/17 15:11:03;;;;;;;3.47;1.90;;;29.90;99.90;;;;;;5053160;28;20378;-51
2023/10/17 15:13:29;;;;;;;4.97;2.70;;;29.90;99.90;;;;;;5052805;28;20021;-51
2023/10/17 15:15:55;;;;;;;5.43;2.63;;;29.90;99.90;;;;;;5052785;28;20025;-50
2023/10/17 15:18:21;;;;;;;5.50;2.80;;;29.90;99.90;;;;;;5052997;28;20548;-50
2023/10/17 15:20:47;;;;;;;3.35;2.55;;;29.90;99.90;;;;;;5034697;28;20072;-50
2023/10/17 15:23:13;;;;;;;5.28;2.58;;;29.90;99.90;;;;;;5052539;28;20444;-51